Time;durP1;ratioP1;P1;durP2;ratioP2;P2;SDS_P1;SDS_P2;PMS_P1;PMS_P2;Temp;Humidity;BMP_temperature;BMP_pressure;BME280_temperature;BME280_humidity;BME280_pressure;Samples;Min_cycle;Max_cycle;Signal;HPM_P1;HPM_P2
2023/04/29 00:00:38;;;;;;;26.10;13.50;;;;;;;6.68;100.00;100717.22;5015944;28;20483;-70
2023/04/29 00:03:03;;;;;;;24.53;14.07;;;;;;;6.70;100.00;100717.94;5020908;28;20017;-69
2023/04/29 00:05:28;;;;;;;21.43;12.57;;;;;;;6.69;100.00;100716.25;5016821;28;20406;-69
2023/04/29 00:07:53;;;;;;;34.33;14.17;;;;;;;6.63;100.00;100711.50;5017088;28;20057;-70
2023/04/29 00:10:19;;;;;;;22.47;12.73;;;;;;;6.63;100.00;100707.03;5016146;28;20034;-70
2023/04/29 00:12:44;;;;;;;24.37;13.47;;;;;;;6.63;100.00;100701.72;5012530;28;20065;-70
2023/04/29 00:15:10;;;;;;;22.40;13.10;;;;;;;6.59;100.00;100704.78;5016942;28;20304;-70
2023/04/29 00:17:35;;;;;;;25.23;14.00;;;;;;;6.68;100.00;100704.81;5014048;28;20050;-70
2023/04/29 00:20:01;;;;;;;21.42;12.63;;;;;;;6.65;100.00;100701.56;5015778;28;20033;-70
2023/04/29 00:22:27;;;;;;;22.17;12.75;;;;;;;6.69;100.00;100701.16;5013872;28;20037;-69
2023/04/29 00:24:52;;;;;;;21.00;11.93;;;;;;;6.66;100.00;100700.63;5014618;28;20423;-70
2023/04/29 00:27:17;;;;;;;22.67;12.90;;;;;;;6.69;100.00;100703.81;5016658;28;20368;-70
2023/04/29 00:29:43;;;;;;;24.37;13.67;;;;;;;6.65;100.00;100693.63;5028721;28;20038;-71
2023/04/29 00:32:08;;;;;;;26.60;13.60;;;;;;;6.63;100.00;100701.72;5015528;28;20068;-70
2023/04/29 00:34:33;;;;;;;25.17;13.63;;;;;;;6.68;100.00;100706.63;5012760;28;20038;-70
2023/04/29 00:36:59;;;;;;;30.47;12.63;;;;;;;6.66;100.00;100708.56;5014442;28;20080;-70
2023/04/29 00:39:24;;;;;;;23.50;13.93;;;;;;;6.62;100.00;100705.34;5021500;28;20030;-70
2023/04/29 00:41:51;;;;;;;21.70;13.90;;;;;;;6.64;100.00;100706.03;5012912;28;20211;-70
2023/04/29 00:44:16;;;;;;;29.67;12.85;;;;;;;6.67;100.00;100712.88;5022699;28;20029;-71
2023/04/29 00:46:42;;;;;;;34.53;15.30;;;;;;;6.67;100.00;100719.06;5012032;28;20044;-70
2023/04/29 00:49:08;;;;;;;23.58;13.18;;;;;;;6.66;100.00;100717.38;5020249;28;20076;-70
2023/04/29 00:51:35;;;;;;;31.55;15.32;;;;;;;6.63;100.00;100712.34;5012782;28;20450;-71
2023/04/29 00:54:02;;;;;;;31.20;15.98;;;;;;;6.67;100.00;100723.50;5015852;28;20358;-69
2023/04/29 00:56:34;;;;;;;28.70;14.35;;;;;;;6.66;100.00;100719.19;5014466;28;20037;-74
2023/04/29 00:59:01;;;;;;;31.65;15.70;;;;;;;6.67;100.00;100724.38;5014036;28;20041;-72
2023/04/29 01:01:27;;;;;;;28.92;15.45;;;;;;;6.63;100.00;100722.97;5015662;28;20068;-74
2023/04/29 01:03:53;;;;;;;26.38;14.82;;;;;;;6.63;100.00;100732.72;5013023;28;20072;-69
2023/04/29 01:06:46;;;;;;;24.23;14.57;;;;;;;6.62;100.00;100731.88;5024820;28;20017;-69
2023/04/29 01:09:33;;;;;;;29.70;16.00;;;;;;;6.53;100.00;100727.38;4998562;28;20048;-75
2023/04/29 01:11:59;;;;;;;28.75;15.32;;;;;;;6.61;100.00;100730.22;5017548;28;20470;-70
2023/04/29 01:14:24;;;;;;;29.13;16.33;;;;;;;6.62;100.00;100729.22;5024496;28;20072;-70
2023/04/29 01:16:59;;;;;;;31.42;15.75;;;;;;;6.52;100.00;100731.84;5016540;28;20048;-72
2023/04/29 01:19:45;;;;;;;25.17;15.18;;;;;;;6.56;100.00;100727.13;5022922;28;20065;-69
2023/04/29 01:22:11;;;;;;;28.58;14.45;;;;;;;6.51;100.00;100730.19;5023088;28;20037;-70
2023/04/29 01:24:36;;;;;;;;;;;;;;;6.56;100.00;100727.13;5015918;28;20119;-69
2023/04/29 01:27:30;;;;;;;30.63;15.98;;;;;;;6.58;100.00;100729.63;5017716;28;19964;-70
2023/04/29 01:30:32;;;;;;;29.05;15.40;;;;;;;6.60;100.00;100730.34;5015926;28;20105;-70
2023/04/29 01:33:13;;;;;;;;;;;;;;;6.53;100.00;100727.38;5021309;28;20487;-70
2023/04/29 01:36:12;;;;;;;25.70;13.85;;;;;;;6.46;100.00;100720.94;5022316;28;19920;-70
2023/04/29 01:39:02;;;;;;;30.92;14.63;;;;;;;6.39;100.00;100719.81;5019670;28;20399;-71
2023/04/29 01:41:48;;;;;;;25.08;13.18;;;;;;;6.40;100.00;100717.03;5018402;28;20108;-69
2023/04/29 01:44:24;;;;;;;27.55;14.30;;;;;;;6.26;100.00;100718.25;5024768;28;20628;-70
2023/04/29 01:46:52;;;;;;;28.40;15.23;;;;;;;6.19;100.00;100719.78;5015768;28;20108;-71
2023/04/29 01:49:20;;;;;;;27.25;13.70;;;;;;;6.35;100.00;100724.56;5024898;28;20021;-70
2023/04/29 01:51:45;;;;;;;21.38;13.43;;;;;;;6.20;100.00;100724.09;5014817;28;20116;-70
2023/04/29 01:54:11;;;;;;;20.80;13.10;;;;;;;6.20;100.00;100721.44;5025643;28;20120;-70
2023/04/29 01:56:36;;;;;;;28.38;13.95;;;;;;;6.25;100.00;100724.56;5015138;28;20029;-69
2023/04/29 01:59:21;;;;;;;26.90;14.07;;;;;;;6.26;100.00;100726.22;5011373;28;20045;-70
2023/04/29 02:01:52;;;;;;;27.00;14.40;;;;;;;6.25;100.00;100719.25;5016023;28;20073;-70
2023/04/29 02:04:18;;;;;;;24.58;13.68;;;;;;;6.25;100.00;100723.69;5034085;28;20173;-71
2023/04/29 02:06:43;;;;;;;25.27;12.77;;;;;;;6.25;100.00;100729.84;5014997;28;20502;-70
2023/04/29 02:09:09;;;;;;;24.15;14.93;;;;;;;6.36;100.00;100736.00;5025231;28;20056;-71
2023/04/29 02:11:34;;;;;;;28.23;12.68;;;;;;;6.25;100.00;100732.50;5015040;28;20033;-70
2023/04/29 02:14:00;;;;;;;29.45;15.48;;;;;;;6.27;100.00;100735.00;5019379;28;20032;-70
2023/04/29 02:16:26;;;;;;;26.00;13.18;;;;;;;6.29;100.00;100730.41;5015409;28;20084;-71
2023/04/29 02:18:56;;;;;;;30.85;14.57;;;;;;;6.31;100.00;100733.75;5015698;28;20172;-71
2023/04/29 02:21:21;;;;;;;25.60;13.73;;;;;;;6.33;100.00;100739.78;5024095;28;20059;-71
2023/04/29 02:23:47;;;;;;;26.43;14.70;;;;;;;6.33;100.00;100742.44;5014419;28;20116;-71
2023/04/29 02:26:14;;;;;;;25.37;12.77;;;;;;;6.25;100.00;100735.16;5018500;28;20313;-70
2023/04/29 02:28:39;;;;;;;27.80;13.15;;;;;;;6.31;100.00;100737.25;5013921;28;20471;-70
2023/04/29 02:31:04;;;;;;;25.77;12.87;;;;;;;6.31;100.00;100741.72;5017092;28;20083;-70
2023/04/29 02:33:31;;;;;;;23.93;12.20;;;;;;;6.32;100.00;100757.50;5016299;28;20104;-70
2023/04/29 02:35:58;;;;;;;32.28;14.50;;;;;;;6.24;100.00;100738.75;5015626;28;20034;-71
2023/04/29 02:38:23;;;;;;;24.70;12.48;;;;;;;6.24;100.00;100740.59;5016992;28;20560;-70
2023/04/29 02:40:49;;;;;;;31.77;13.47;;;;;;;6.11;100.00;100735.50;5015745;28;20068;-70
2023/04/29 02:43:14;;;;;;;25.93;13.43;;;;;;;6.15;100.00;100736.09;5024395;28;20812;-71
2023/04/29 02:45:40;;;;;;;27.73;13.27;;;;;;;6.13;100.00;100742.38;5013554;28;20371;-70
2023/04/29 02:48:06;;;;;;;28.48;13.25;;;;;;;6.06;100.00;100745.66;5023971;28;20136;-70
2023/04/29 02:50:32;;;;;;;25.67;12.80;;;;;;;5.95;100.00;100743.09;5017054;28;20029;-71
2023/04/29 02:52:58;;;;;;;;;;;;;;;5.86;100.00;100750.84;5020654;28;20065;-70
2023/04/29 02:55:23;;;;;;;23.17;11.38;;;;;;;5.87;100.00;100757.81;5006597;28;21012;-70
2023/04/29 02:57:48;;;;;;;24.80;12.97;;;;;;;5.77;100.00;100751.66;5014473;28;20021;-70
2023/04/29 03:00:14;;;;;;;21.77;12.03;;;;;;;5.74;100.00;100748.44;5018078;28;20426;-70
2023/04/29 03:02:40;;;;;;;21.20;11.85;;;;;;;5.71;100.00;100754.81;4996987;28;20026;-70
2023/04/29 03:05:05;;;;;;;24.88;12.23;;;;;;;5.65;100.00;100747.41;5016128;28;20025;-70
2023/04/29 03:07:31;;;;;;;24.98;13.13;;;;;;;5.59;100.00;100756.69;5015706;28;20789;-70
2023/04/29 03:09:57;;;;;;;32.17;12.20;;;;;;;5.49;100.00;100748.69;5016341;28;20500;-71
2023/04/29 03:12:22;;;;;;;23.52;11.88;;;;;;;5.49;100.00;100751.34;5023014;28;20250;-70
2023/04/29 03:14:48;;;;;;;27.55;12.35;;;;;;;5.40;100.00;100753.91;5013678;28;20040;-70
2023/04/29 03:17:14;;;;;;;23.33;11.90;;;;;;;5.43;100.00;100761.59;5016670;28;20033;-70
2023/04/29 03:19:40;;;;;;;27.38;12.98;;;;;;;5.40;100.00;100760.06;5013012;28;20029;-70
2023/04/29 03:22:10;;;;;;;25.80;12.15;;;;;;;5.35;100.00;100764.91;5032603;28;20026;-71
2023/04/29 03:24:37;;;;;;;24.17;11.73;;;;;;;5.37;100.00;100764.78;5013636;28;20617;-71
2023/04/29 03:27:03;;;;;;;26.42;11.90;;;;;;;5.40;100.00;100773.28;5032018;28;20029;-70
2023/04/29 03:29:30;;;;;;;28.30;12.45;;;;;;;5.34;100.00;100781.75;5014149;28;20546;-70
2023/04/29 03:31:55;;;;;;;;;;;;;;;5.45;100.00;100783.50;5015039;28;20479;-70
2023/04/29 03:34:21;;;;;;;26.30;12.05;;;;;;;5.40;100.00;100783.03;5022643;28;19917;-71
2023/04/29 03:36:56;;;;;;;29.98;13.13;;;;;;;5.32;100.00;100775.75;5014537;28;20022;-70
2023/04/29 03:39:21;;;;;;;26.20;14.20;;;;;;;5.32;100.00;100783.69;5022656;28;20060;-71
2023/04/29 03:41:47;;;;;;;27.50;11.97;;;;;;;5.31;100.00;100787.28;5014616;28;20042;-71
2023/04/29 03:44:13;;;;;;;24.75;13.68;;;;;;;5.31;100.00;100784.63;5017764;28;20275;-70
2023/04/29 03:46:39;;;;;;;32.13;14.53;;;;;;;5.32;100.00;100782.84;5013033;28;20022;-70
2023/04/29 03:49:04;;;;;;;27.77;13.00;;;;;;;5.29;100.00;100792.72;5020043;28;20280;-70
2023/04/29 03:51:30;;;;;;;37.53;14.93;;;;;;;5.33;100.00;100795.13;5014077;28;20091;-70
2023/04/29 03:54:08;;;;;;;21.75;10.60;;;;;;;5.27;100.00;100796.47;5013905;28;20033;-70
2023/04/29 03:56:35;;;;;;;21.75;11.55;;;;;;;5.27;100.00;100797.31;5013104;28;20113;-71
2023/04/29 03:59:00;;;;;;;24.90;12.73;;;;;;;5.21;100.00;100791.69;5014242;28;20152;-71
2023/04/29 04:01:26;;;;;;;26.42;12.50;;;;;;;5.20;100.00;100788.19;5001226;28;20304;-70
2023/04/29 04:03:51;;;;;;;26.73;12.63;;;;;;;5.17;100.00;100795.53;5013417;28;20065;-71
2023/04/29 04:06:16;;;;;;;29.85;13.90;;;;;;;5.13;100.00;100789.66;5005160;28;20530;-70
2023/04/29 04:08:42;;;;;;;31.35;12.82;;;;;;;5.13;100.00;100794.09;5012197;28;20212;-70
2023/04/29 04:11:22;;;;;;;28.38;12.52;;;;;;;5.13;100.00;100778.22;5022190;28;20040;-71
2023/04/29 04:13:55;;;;;;;31.27;12.45;;;;;;;5.28;100.00;100798.16;5013714;28;20034;-70
2023/04/29 04:16:22;;;;;;;;;;;;;;;5.32;100.00;100799.56;5022668;28;20040;-70
2023/04/29 04:18:47;;;;;;;24.05;12.43;;;;;;;5.30;100.00;100796.22;5012669;28;19909;-70
2023/04/29 04:21:12;;;;;;;30.65;13.95;;;;;;;5.35;100.00;100794.03;5023234;28;20502;-70
2023/04/29 04:23:42;;;;;;;23.63;12.57;;;;;;;5.41;100.00;100793.53;5011764;28;20037;-71
2023/04/29 04:26:10;;;;;;;21.33;11.93;;;;;;;5.44;100.00;100803.84;5019167;28;20072;-70
2023/04/29 04:28:54;;;;;;;29.50;12.40;;;;;;;5.48;100.00;100801.78;5016305;28;20029;-70
2023/04/29 04:31:30;;;;;;;29.23;13.32;;;;;;;5.46;100.00;100801.09;5019922;28;20026;-70
2023/04/29 04:33:58;;;;;;;22.98;12.90;;;;;;;5.52;100.00;100811.13;4997967;28;20026;-71
2023/04/29 04:36:24;;;;;;;27.90;12.40;;;;;;;5.62;100.00;100812.06;5014522;28;20022;-70
2023/04/29 04:38:50;;;;;;;30.65;12.88;;;;;;;5.65;100.00;100806.50;5013031;28;20120;-70
2023/04/29 04:41:15;;;;;;;28.88;13.25;;;;;;;5.71;100.00;100803.34;5025546;28;20143;-70
2023/04/29 04:43:43;;;;;;;24.75;11.75;;;;;;;5.70;100.00;100814.06;5019551;28;20120;-70
2023/04/29 04:46:32;;;;;;;24.63;12.50;;;;;;;5.77;100.00;100815.22;5016560;28;20041;-71
2023/04/29 04:49:17;;;;;;;27.27;11.90;;;;;;;5.92;100.00;100824.53;5019222;28;20033;-70
2023/04/29 04:51:50;;;;;;;26.05;11.70;;;;;;;6.06;100.00;100827.84;5016780;28;20029;-71
2023/04/29 04:54:16;;;;;;;23.07;12.60;;;;;;;6.54;100.00;100856.41;5026300;28;20394;-70
2023/04/29 04:56:41;;;;;;;26.13;11.90;;;;;;;7.12;100.00;100856.56;5015785;28;20559;-71
2023/04/29 04:59:08;;;;;;;;;;;;;;;7.09;100.00;100845.38;5026799;28;20032;-70
2023/04/29 05:01:35;;;;;;;21.42;10.90;;;;;;;7.02;100.00;100833.63;5018747;28;19917;-70
2023/04/29 05:04:02;;;;;;;23.50;10.73;;;;;;;7.08;100.00;100833.09;5026044;28;20544;-71
2023/04/29 05:06:28;;;;;;;21.55;11.05;;;;;;;7.63;100.00;100853.78;5017440;28;20032;-71
2023/04/29 05:08:54;;;;;;;19.50;10.47;;;;;;;8.02;100.00;100842.13;5021081;28;20029;-70
2023/04/29 05:11:20;;;;;;;21.07;9.43;;;;;;;8.54;100.00;100833.72;5025909;28;20025;-71
2023/04/29 05:14:00;;;;;;;16.35;8.70;;;;;;;9.35;100.00;100824.94;5020754;28;20277;-70
2023/04/29 05:16:25;;;;;;;13.43;9.02;;;;;;;10.12;100.00;100804.69;5021306;28;20029;-70
2023/04/29 05:18:51;;;;;;;18.27;8.37;;;;;;;10.28;100.00;100734.59;5018301;28;20084;-71
2023/04/29 05:21:16;;;;;;;18.27;8.03;;;;;;;10.00;100.00;100624.59;5026182;28;20036;-70
2023/04/29 05:23:42;;;;;;;13.43;7.33;;;;;;;10.84;100.00;100588.03;5015948;28;20029;-71
2023/04/29 05:26:07;;;;;;;12.63;6.32;;;;;;;11.43;100.00;100467.47;5016683;28;20042;-71
2023/04/29 05:28:34;;;;;;;16.08;7.28;;;;;;;11.52;100.00;100286.44;4999896;28;20087;-70
2023/04/29 05:31:00;;;;;;;11.83;7.13;;;;;;;11.04;100.00;100163.75;5037232;28;20033;-71
2023/04/29 05:33:25;;;;;;;14.52;7.78;;;;;;;11.54;100.00;100166.78;5011825;28;20826;-70
2023/04/29 05:35:50;;;;;;;15.60;7.17;;;;;;;11.89;100.00;100028.03;5022384;28;20593;-70
2023/04/29 05:38:16;;;;;;;13.40;6.97;;;;;;;11.76;100.00;99900.31;5009202;28;20171;-71
2023/04/29 05:40:56;;;;;;;11.07;6.32;;;;;;;12.12;100.00;99878.84;5015919;28;20029;-71
2023/04/29 05:43:41;;;;;;;15.82;7.13;;;;;;;11.54;100.00;99741.75;5022402;28;20265;-71
2023/04/29 05:46:06;;;;;;;12.03;6.40;;;;;;;11.80;100.00;99798.13;5018549;28;20536;-71
2023/04/29 05:48:32;;;;;;;16.02;6.93;;;;;;;11.24;100.00;99853.28;5015957;28;20021;-71
2023/04/29 05:50:57;;;;;;;13.00;7.57;;;;;;;10.67;100.00;99761.44;5020572;28;20111;-71
2023/04/29 05:53:23;;;;;;;14.18;7.63;;;;;;;11.18;100.00;99921.69;5017151;28;20505;-71
2023/04/29 05:55:49;;;;;;;12.23;5.80;;;;;;;10.96;100.00;99918.94;5036073;28;20049;-71
2023/04/29 05:58:15;;;;;;;11.73;6.57;;;;;;;10.19;100.00;99892.53;5025746;28;20026;-71
2023/04/29 06:00:42;;;;;;;11.43;6.93;;;;;;;10.15;100.00;99949.91;5015410;28;20029;-72
2023/04/29 06:03:13;;;;;;;16.90;7.22;;;;;;;9.95;100.00;99890.91;5018476;28;20033;-70
2023/04/29 06:05:39;;;;;;;13.32;7.18;;;;;;;9.86;100.00;99940.78;5014993;28;20134;-70
2023/04/29 06:08:28;;;;;;;14.20;7.30;;;;;;;9.86;100.00;99897.31;5012077;28;20056;-71
2023/04/29 06:11:00;;;;;;;14.55;6.13;;;;;;;10.31;100.00;100016.50;5006050;28;20124;-70
2023/04/29 06:13:26;;;;;;;16.02;7.07;;;;;;;10.88;100.00;99956.41;5015606;28;20021;-71
2023/04/29 06:15:51;;;;;;;10.00;5.63;;;;;;;10.98;100.00;99711.25;5000751;28;20026;-71
2023/04/29 06:18:17;;;;;;;13.88;6.55;;;;;;;11.11;100.00;99763.16;5017640;28;20025;-71
2023/04/29 06:20:42;;;;;;;11.87;6.27;;;;;;;11.24;100.00;99822.09;5030700;28;20419;-71
2023/04/29 06:23:08;;;;;;;13.37;7.27;;;;;;;10.56;100.00;99704.84;5024983;28;20086;-71
2023/04/29 06:25:34;;;;;;;12.73;6.07;;;;;;;10.51;100.00;99690.41;5015113;28;20059;-71
2023/04/29 06:28:03;;;;;;;10.27;6.53;;;;;;;11.53;100.00;99965.47;5000954;28;20037;-71
2023/04/29 06:30:29;;;;;;;13.10;6.60;;;;;;;11.46;100.00;99629.66;5015449;28;20033;-70
2023/04/29 06:32:55;;;;;;;11.32;6.07;;;;;;;11.65;100.00;99604.88;5032090;28;20022;-70
2023/04/29 06:35:21;;;;;;;14.65;7.25;;;;;;;12.21;100.00;99609.28;5023867;28;20701;-71
2023/04/29 06:37:59;;;;;;;13.88;5.97;;;;;;;12.79;100.00;99593.53;5018114;28;20041;-70
2023/04/29 06:40:43;;;;;;;14.75;6.45;;;;;;;12.40;100.00;99302.56;5021909;28;20043;-71
2023/04/29 06:43:29;;;;;;;10.00;7.13;;;;;;;13.04;100.00;99491.94;5021291;28;20037;-71
2023/04/29 06:46:11;;;;;;;14.50;6.85;;;;;;;13.34;100.00;99120.75;5037750;28;21071;-71
2023/04/29 06:48:56;;;;;;;11.03;6.17;;;;;;;13.45;100.00;99214.69;5017083;28;20111;-71
2023/04/29 06:51:22;;;;;;;11.20;6.15;;;;;;;14.12;100.00;99345.59;5016496;28;20123;-71
2023/04/29 06:53:47;;;;;;;9.43;6.27;;;;;;;13.21;97.43;98947.50;5030805;28;20137;-71
2023/04/29 06:56:12;;;;;;;10.20;5.87;;;;;;;13.25;99.16;99251.50;5017542;28;20033;-71
2023/04/29 06:58:38;;;;;;;11.57;5.85;;;;;;;13.25;99.10;99305.94;5015499;28;20033;-71
2023/04/29 07:01:07;;;;;;;11.80;6.32;;;;;;;13.08;99.15;99294.06;5033582;28;20125;-72
2023/04/29 07:03:32;;;;;;;12.05;6.88;;;;;;;13.29;100.00;99596.66;5018856;28;20033;-71
2023/04/29 07:05:58;;;;;;;11.10;6.77;;;;;;;13.47;100.00;99517.44;5016028;28;20033;-71
2023/04/29 07:08:23;;;;;;;12.07;7.00;;;;;;;13.52;99.43;99472.84;5015629;28;20064;-71
2023/04/29 07:10:56;;;;;;;10.27;7.20;;;;;;;13.49;98.58;99451.84;5031064;28;20083;-71
2023/04/29 07:13:22;;;;;;;14.82;7.00;;;;;;;13.78;99.27;99610.56;5023100;28;20017;-71
2023/04/29 07:15:49;;;;;;;12.40;7.40;;;;;;;13.84;96.89;99458.69;5030746;28;20391;-71
2023/04/29 07:18:14;;;;;;;13.40;7.55;;;;;;;13.42;96.24;99338.44;5024212;28;20021;-71
2023/04/29 07:20:40;;;;;;;13.00;6.47;;;;;;;13.52;96.19;99395.09;5013750;28;20827;-71
2023/04/29 07:23:06;;;;;;;11.80;6.93;;;;;;;13.77;93.72;99296.97;5033216;28;20068;-70
2023/04/29 07:25:32;;;;;;;12.53;7.63;;;;;;;13.82;93.32;99294.44;4997990;28;20068;-73
2023/04/29 07:27:57;;;;;;;11.38;6.97;;;;;;;13.80;90.73;99173.94;5032064;28;20030;-72
2023/04/29 07:30:24;;;;;;;12.20;7.25;;;;;;;13.26;91.85;99154.81;5022876;28;20075;-73
2023/04/29 07:32:50;;;;;;;14.48;7.72;;;;;;;13.37;91.36;99233.75;5014142;28;20467;-73
2023/04/29 07:35:17;;;;;;;10.52;6.85;;;;;;;13.50;93.15;99426.66;5023689;28;20148;-72
2023/04/29 07:37:43;;;;;;;12.00;7.35;;;;;;;13.66;91.19;99298.50;5000293;28;20029;-74
2023/04/29 07:40:09;;;;;;;14.30;7.82;;;;;;;13.16;90.02;99089.34;5016664;28;20029;-74
2023/04/29 07:42:36;;;;;;;14.10;7.38;;;;;;;13.62;91.89;99450.13;4997396;28;20030;-69
2023/04/29 07:45:03;;;;;;;13.95;6.88;;;;;;;14.26;91.28;99520.78;5031962;28;20430;-73
2023/04/29 07:47:28;;;;;;;9.50;6.25;;;;;;;13.93;87.62;99138.94;5014811;28;20123;-73
2023/04/29 07:49:53;;;;;;;13.50;6.40;;;;;;;13.88;86.83;99069.06;4997851;28;20045;-73
2023/04/29 07:52:19;;;;;;;11.73;6.50;;;;;;;13.93;88.77;99360.81;5017022;28;20021;-73
2023/04/29 07:54:47;;;;;;;9.85;5.80;;;;;;;13.87;85.74;99072.75;5013552;28;20398;-72
2023/04/29 07:57:13;;;;;;;9.93;6.47;;;;;;;14.19;82.46;98908.03;5023875;28;20035;-73
2023/04/29 07:59:38;;;;;;;10.93;6.13;;;;;;;14.21;82.79;98939.00;5013118;28;20113;-73
2023/04/29 08:02:03;;;;;;;12.33;6.50;;;;;;;14.49;81.53;98934.81;5032065;28;20514;-73
2023/04/29 08:04:29;;;;;;;8.80;6.60;;;;;;;14.11;81.09;98855.53;5013988;28;20571;-73
2023/04/29 08:06:59;;;;;;;8.85;6.15;;;;;;;14.08;79.56;98724.53;5015202;28;20022;-73
2023/04/29 08:09:24;;;;;;;10.77;7.77;;;;;;;14.32;79.49;98824.63;5014969;28;20032;-72
2023/04/29 08:11:50;;;;;;;9.20;6.13;;;;;;;14.69;80.10;99053.50;5014910;28;20037;-73
2023/04/29 08:14:15;;;;;;;9.33;6.10;;;;;;;14.67;79.75;99019.88;5018199;28;20935;-73
2023/04/29 08:16:40;;;;;;;15.23;7.33;;;;;;;14.93;78.11;98972.94;5000655;28;20040;-71
2023/04/29 08:19:06;;;;;;;11.03;5.73;;;;;;;15.12;77.19;98952.13;5036398;28;20079;-71
2023/04/29 08:21:31;;;;;;;9.97;6.23;;;;;;;15.30;74.70;98736.09;5018131;28;20287;-72
2023/04/29 08:23:57;;;;;;;10.17;6.23;;;;;;;15.45;72.79;98609.16;5023593;28;20029;-71
2023/04/29 08:26:22;;;;;;;9.45;6.68;;;;;;;15.04;72.43;98541.34;5026623;28;20029;-74
2023/04/29 08:28:49;;;;;;;12.85;7.32;;;;;;;15.27;74.70;98904.06;5018165;28;20041;-73
2023/04/29 08:31:18;;;;;;;12.38;7.47;;;;;;;15.02;73.88;98745.78;5027674;28;20017;-72
2023/04/29 08:33:44;;;;;;;15.40;6.78;;;;;;;15.29;74.67;98976.41;5020852;28;20076;-73
2023/04/29 08:36:09;;;;;;;10.43;6.60;;;;;;;15.30;73.78;98925.09;5020271;28;20037;-73
2023/04/29 08:38:35;;;;;;;11.77;6.47;;;;;;;14.93;71.64;98513.50;5018304;28;20898;-73
2023/04/29 08:41:00;;;;;;;12.90;6.70;;;;;;;15.27;72.43;98790.34;5020322;28;20045;-74
2023/04/29 08:43:26;;;;;;;11.93;6.23;;;;;;;16.26;71.98;99064.47;5006790;28;20040;-70
2023/04/29 08:45:52;;;;;;;8.95;7.07;;;;;;;16.32;70.04;98813.09;5019690;28;20080;-70
2023/04/29 08:48:17;;;;;;;13.00;6.50;;;;;;;16.37;70.04;98829.31;5026480;28;20056;-73
2023/04/29 08:50:43;;;;;;;10.13;6.80;;;;;;;16.68;68.53;98767.78;5032828;28;20069;-73
2023/04/29 08:53:11;;;;;;;10.20;6.65;;;;;;;16.66;67.99;98726.81;5026521;28;20034;-72
2023/04/29 08:55:44;;;;;;;9.35;5.88;;;;;;;16.89;67.14;98714.97;5017476;28;20033;-73
2023/04/29 08:58:11;;;;;;;10.32;6.15;;;;;;;17.08;66.43;98680.38;5018659;28;20389;-73
2023/04/29 09:00:38;;;;;;;10.38;6.75;;;;;;;17.21;65.82;98636.03;5016264;28;20017;-74
2023/04/29 09:03:28;;;;;;;10.65;6.03;;;;;;;16.53;63.72;98207.34;5019432;28;20025;-74
2023/04/29 09:05:55;;;;;;;12.23;6.47;;;;;;;16.02;63.61;98067.97;5033578;28;20042;-73
2023/04/29 09:08:22;;;;;;;8.27;5.68;;;;;;;15.81;65.93;98446.41;5025393;28;20164;-72
2023/04/29 09:10:49;;;;;;;9.90;5.07;;;;;;;16.27;65.15;98553.72;5017832;28;20053;-74
2023/04/29 09:13:23;;;;;;;9.80;6.00;;;;;;;16.44;63.01;98323.66;5026125;28;20030;-74
2023/04/29 09:15:48;;;;;;;14.38;7.85;;;;;;;16.10;64.30;98403.06;5016229;28;20030;-72
2023/04/29 09:18:49;;;;;;;9.87;6.53;;;;;;;15.98;64.07;98370.94;5026336;28;20033;-73
2023/04/29 09:21:19;;;;;;;12.32;7.22;;;;;;;15.97;64.10;98432.03;5017244;28;20065;-73
2023/04/29 09:23:46;;;;;;;11.95;5.85;;;;;;;15.91;64.67;98518.34;5019732;28;20064;-72
2023/04/29 09:26:12;;;;;;;10.50;5.57;;;;;;;15.85;63.51;98323.75;5025863;28;20112;-74
2023/04/29 09:28:40;;;;;;;7.22;5.15;;;;;;;16.44;62.40;98406.34;5017186;28;20018;-73
2023/04/29 09:31:07;;;;;;;12.40;5.63;;;;;;;16.74;63.64;98644.69;5019903;28;20033;-73
2023/04/29 09:33:49;;;;;;;8.68;5.60;;;;;;;17.44;61.27;98570.94;5003534;28;20029;-73
2023/04/29 09:36:35;;;;;;;10.15;5.63;;;;;;;16.95;60.54;98277.34;5016705;28;20099;-73
2023/04/29 09:39:01;;;;;;;10.02;5.25;;;;;;;16.86;59.04;98057.97;5019058;28;20549;-70
2023/04/29 09:41:26;;;;;;;10.88;5.13;;;;;;;16.78;59.08;98083.50;5018754;28;20497;-71
2023/04/29 09:44:08;;;;;;;8.67;5.50;;;;;;;16.63;59.82;98258.59;5017636;28;20042;-73
2023/04/29 09:46:35;;;;;;;8.07;6.03;;;;;;;16.83;58.85;98185.13;5018879;28;20037;-72
2023/04/29 09:49:03;;;;;;;10.23;5.68;;;;;;;17.57;58.76;98415.06;5033934;28;20973;-70
2023/04/29 09:51:31;;;;;;;11.30;5.70;;;;;;;17.37;57.58;98171.22;5016913;28;20025;-73
2023/04/29 09:53:58;;;;;;;9.68;5.63;;;;;;;17.41;55.44;97920.66;5018171;28;20057;-73
2023/04/29 09:56:29;;;;;;;9.43;5.13;;;;;;;17.52;55.77;98027.41;5018424;28;20405;-73
2023/04/29 09:58:56;;;;;;;9.02;5.07;;;;;;;18.24;55.67;98324.19;5000105;28;20139;-73
2023/04/29 10:01:22;;;;;;;7.15;5.35;;;;;;;18.26;54.41;98085.22;5017891;28;20048;-71
2023/04/29 10:03:49;;;;;;;8.82;4.90;;;;;;;18.36;54.70;98181.59;5016517;28;20057;-73
2023/04/29 10:06:15;;;;;;;7.38;5.50;;;;;;;18.87;54.04;98258.94;5025548;28;20042;-73
2023/04/29 10:08:42;;;;;;;9.57;4.90;;;;;;;19.14;53.73;98293.72;4998087;28;20029;-71
2023/04/29 10:11:10;;;;;;;6.80;5.25;;;;;;;18.70;54.17;98156.56;5016762;28;20032;-72
2023/04/29 10:13:38;;;;;;;10.95;5.70;;;;;;;18.47;53.49;98007.56;4998402;28;20776;-70
2023/04/29 10:16:29;;;;;;;11.18;5.80;;;;;;;18.38;53.32;97981.41;5017716;28;20041;-71
2023/04/29 10:18:55;;;;;;;8.00;5.38;;;;;;;18.44;53.73;98140.47;5017967;28;20038;-72
2023/04/29 10:21:28;;;;;;;7.30;4.85;;;;;;;19.23;52.38;98262.28;5024104;28;20502;-70
2023/04/29 10:23:56;;;;;;;9.85;5.63;;;;;;;19.47;51.32;98135.22;5032979;28;20040;-74
2023/04/29 10:26:25;;;;;;;9.40;5.72;;;;;;;18.81;51.51;97922.22;5024093;28;20041;-73
2023/04/29 10:28:53;;;;;;;6.82;5.30;;;;;;;18.81;52.68;98101.41;5017087;28;20037;-71
2023/04/29 10:31:20;;;;;;;8.75;5.70;;;;;;;19.18;52.13;98181.19;5024493;28;20483;-72
2023/04/29 10:33:47;;;;;;;6.38;5.13;;;;;;;19.37;51.35;98211.88;5031046;28;20597;-70
2023/04/29 10:36:14;;;;;;;10.00;5.45;;;;;;;19.40;51.12;98127.44;5018827;28;20025;-74
2023/04/29 10:38:48;;;;;;;10.45;5.78;;;;;;;19.77;50.85;98260.59;5017691;28;20026;-74
2023/04/29 10:41:24;;;;;;;8.77;5.43;;;;;;;19.95;51.53;98416.16;5017741;28;20417;-74
2023/04/29 10:43:53;;;;;;;;;;;;;;;19.83;51.16;98278.44;5031305;28;20033;-74
2023/04/29 10:46:20;;;;;;;11.13;6.05;;;;;;;19.55;50.47;97974.97;5018201;28;19943;-73
2023/04/29 10:48:46;;;;;;;9.73;6.25;;;;;;;19.43;52.30;98393.13;5015616;28;20558;-71
2023/04/29 10:51:13;;;;;;;;;;;;;;;19.56;51.24;98230.16;5018704;28;20486;-74
2023/04/29 10:54:02;;;;;;;14.10;6.57;;;;;;;19.25;51.71;98276.34;5011006;28;19963;-74
2023/04/29 10:56:48;;;;;;;11.00;6.85;;;;;;;18.17;51.89;97908.66;5018631;28;20021;-73
2023/04/29 10:59:16;;;;;;;10.02;6.03;;;;;;;19.31;53.73;98716.16;5022628;28;20044;-73
2023/04/29 11:01:45;;;;;;;11.85;6.15;;;;;;;19.47;50.85;98231.84;5029841;28;20121;-73
2023/04/29 11:04:11;;;;;;;9.80;6.57;;;;;;;19.90;49.07;98067.72;5016376;28;20511;-71
2023/04/29 11:06:38;;;;;;;11.32;7.20;;;;;;;19.08;50.63;98024.41;5015043;28;20453;-73
2023/04/29 11:09:25;;;;;;;11.65;6.75;;;;;;;18.13;52.62;98023.72;5017285;28;20033;-73
2023/04/29 11:12:02;;;;;;;11.27;6.32;;;;;;;18.44;51.48;97978.41;5014277;28;20493;-72
2023/04/29 11:14:42;;;;;;;8.93;5.53;;;;;;;18.54;52.04;98193.66;5020443;28;20562;-72
2023/04/29 11:17:11;;;;;;;15.40;6.95;;;;;;;19.43;51.97;98474.28;5018881;28;20079;-74
2023/04/29 11:19:41;;;;;;;9.82;7.40;;;;;;;18.77;49.93;97751.72;5019953;28;20112;-74
2023/04/29 11:22:10;;;;;;;9.50;6.15;;;;;;;19.44;51.42;98463.19;5024305;28;20041;-73
2023/04/29 11:24:46;;;;;;;15.07;6.85;;;;;;;19.59;49.06;97980.59;5023070;28;20512;-70
2023/04/29 11:27:13;;;;;;;10.18;6.63;;;;;;;18.88;48.23;97512.66;5023554;28;20036;-74